首页
METAR-TAF:

METAR-TAF

机场 :

关塔那摩, 古巴

纬度: 19-54N, 经度: 075-08W, 海拔: 23米

当前天气观测

该预报发布于15分钟前的21:51 UTC
风速17节,风向,有时为21节阵风
温度 30°C
湿度 62%
气压 1013 hPa
能見度: 16.1公里
少量云层高于3000英尺
少量云层高于5500英尺

METAR: MUGM 172151Z 09017G21KT 10SM FEW030 FEW055 30/22 A2990 RMK AO2 SLP124 T03000217 $

时间: 18:06 (22:06 UTC)

预报

预报有效从17日的 07点(UTC)到 18日的 07点(UTC)
风速6节,风向北转西北
能见度10公里或以上
少量云层高于3000英尺
少量云层高于6000英尺
成为
从 17日的 14点(UTC)到 17日的 16点(UTC)
风速15节,风向,有时为20节阵风
能见度10公里或以上
少量云层高于3000英尺
少量云层高于6000英尺
散云层高于25000英尺
附近有阵雨
从 17日的 2100点(UTC)
风速16节,风向南转南东,有时为26节阵风
能见度10公里或以上
少量云层高于3000英尺
散云层高于25000英尺
成为
从 18日的 01点(UTC)到 18日的 03点(UTC)
风速6节,风向西北
能见度10公里或以上
少量云层高于3000英尺
少量云层高于25000英尺

TAF: MUGM 1707/1807 33006KT 9999 FEW030 FEW060 QNH2990INS BECMG 1714/1716 10015G20KT 9999 VCSH FEW030 FEW060 SCT250 QNH2987INS FM172100 15016G26KT 9999 FEW030 SCT250 QNH2985INS BECMG 1801/1803 31006KT 9999 FEW030 FEW250 QNH2989INS TX32/1717Z TN23/1711Z FN00268

超过4000个机场的气象观测和天气预报(METAR&TAF报告)。

可查询的气象台以黄色和红色小点在地图上表示。

将鼠标移到小点上方,可查看气象台名称。

然后点击查看天气观测和预报。

如需切换地图:点击带黑十字的绿色按钮放大地图;点击带横线的绿色按钮缩小地图;或者点击绿色箭头查看邻近地区的地图。


METAR-TAF: